METAR Data
IDs: Format: Raw Decoded Include TAF

Data at: 1304 UTC 11 Dec 2018

KGVT 111255Z AUTO 17003KT 10SM CLR 02/00 A3036 RMK AO2
KGVT 111235Z AUTO 16004KT 10SM CLR 01/00 A3036 RMK AO2
KGVT 111215Z AUTO 17003KT 10SM CLR 01/00 A3035 RMK AO2
KGVT 111155Z AUTO 18004KT 10SM CLR 02/00 A3036 RMK AO2
KGVT 111135Z AUTO 18003KT 10SM CLR 01/00 A3035 RMK AO2
KGVT 111115Z AUTO 00000KT 10SM CLR 02/00 A3034 RMK AO2
KGVT 111055Z AUTO 16003KT 10SM CLR 01/00 A3033 RMK AO2
KGVT 111035Z AUTO 00000KT 10SM CLR 01/00 A3034 RMK AO2
KGVT 111015Z AUTO 15003KT 10SM CLR 01/00 A3034 RMK AO2
KGVT 110950Z AUTO 19003KT 10SM CLR 03/00 A3036 RMK AO2
KGVT 110935Z AUTO 00000KT 10SM CLR 04/00 A3036 RMK AO2
KGVT 110915Z AUTO 00000KT 10SM CLR 03/00 A3037 RMK AO2
KGVT 110855Z AUTO 00000KT 10SM CLR 02/00 A3036 RMK AO2
KGVT 110835Z AUTO 00000KT 10SM CLR 02/00 A3036 RMK AO2
KGVT 110815Z AUTO 17003KT 10SM CLR 02/00 A3036 RMK AO2
KGVT 110755Z AUTO 15003KT 10SM CLR 02/00 A3037 RMK AO2
KGVT 110730Z AUTO 00000KT 10SM CLR 02/00 A3037 RMK AO2
KGVT 110715Z AUTO 00000KT 10SM CLR 03/00 A3037 RMK AO2
KGVT 110655Z AUTO 00000KT 10SM CLR 02/00 A3037 RMK AO2
KGVT 110635Z AUTO 17003KT 10SM CLR 03/01 A3037 RMK AO2
KGVT 110615Z AUTO 17003KT 10SM CLR 02/01 A3037 RMK AO2
KGVT 110555Z AUTO 00000KT 10SM CLR 03/01 A3037 RMK AO2
KGVT 110535Z AUTO 17004KT 10SM CLR 02/01 A3037 RMK AO2
KGVT 110515Z AUTO 19003KT 10SM CLR 03/02 A3037 RMK AO2
KGVT 110455Z AUTO 00000KT 10SM CLR 03/02 A3037 RMK AO2
KGVT 110435Z AUTO 00000KT 10SM CLR 03/02 A3037 RMK AO2
KGVT 110415Z AUTO 00000KT 10SM CLR 03/02 A3037 RMK AO2
KGVT 110355Z AUTO 15003KT 10SM CLR 03/02 A3037 RMK AO2
KGVT 110335Z AUTO 00000KT 10SM CLR 03/01 A3037 RMK AO2
KGVT 110315Z AUTO 16003KT 10SM CLR 04/02 A3037 RMK AO2
KGVT 110255Z AUTO 00000KT 10SM CLR 05/02 A3037 RMK AO2
KGVT 110235Z AUTO 00000KT 10SM CLR 04/01 A3037 RMK AO2
KGVT 110215Z AUTO 00000KT 10SM CLR 05/01 A3037 RMK AO2
KGVT 110155Z AUTO 17004KT 10SM CLR 05/01 A3037 RMK AO2
KGVT 110135Z AUTO 16003KT 10SM CLR 05/01 A3037 RMK AO2
KGVT 110115Z AUTO 17003KT 10SM CLR 05/01 A3037 RMK AO2
KGVT 110055Z AUTO 15003KT 10SM CLR 06/01 A3036 RMK AO2
KGVT 110035Z AUTO 16004KT 10SM CLR 05/01 A3036 RMK AO2
KGVT 110015Z AUTO 00000KT 10SM CLR 07/01 A3036 RMK AO2
KGVT 102355Z AUTO 00000KT 10SM CLR 08/01 A3035 RMK AO2
KGVT 102335Z AUTO 00000KT 10SM CLR 10/00 A3035 RMK AO2
KGVT 102315Z AUTO 00000KT 10SM CLR 11/00 A3034 RMK AO2
KGVT 102255Z AUTO 00000KT 10SM CLR 13/M02 A3034 RMK AO2
KGVT 102235Z AUTO 00000KT 10SM CLR 13/M01 A3034 RMK AO2
KGVT 102215Z AUTO 00000KT 10SM CLR 13/M01 A3034 RMK AO2
KGVT 102155Z AUTO 00000KT 10SM CLR 13/M01 A3035 RMK AO2
KGVT 102135Z AUTO 00000KT 10SM CLR 13/M02 A3034 RMK AO2
KGVT 102115Z AUTO 00000KT 10SM CLR 13/M01 A3034 RMK AO2
KGVT 102055Z AUTO 00000KT 10SM CLR 13/M01 A3034 RMK AO2
KGVT 102035Z AUTO 00000KT 10SM CLR 13/M01 A3034 RMK AO2
KGVT 102015Z AUTO 29003KT 10SM CLR 13/M01 A3035 RMK AO2
KGVT 101955Z AUTO 26004KT 10SM CLR 13/M01 A3035 RMK AO2
KGVT 101935Z AUTO 28005KT 10SM CLR 13/M01 A3036 RMK AO2
KGVT 101915Z AUTO 00000KT 10SM CLR 12/M01 A3036 RMK AO2
KGVT 101855Z AUTO 00000KT 10SM CLR 12/M02 A3037 RMK AO2
KGVT 101835Z AUTO 27003KT 10SM CLR 12/M02 A3037 RMK AO2
KGVT 101815Z AUTO 00000KT 10SM CLR 11/M02 A3038 RMK AO2
KGVT 101755Z AUTO 00000KT 10SM CLR 11/M01 A3039 RMK AO2
KGVT 101735Z AUTO 00000KT 10SM CLR 11/M01 A3040 RMK AO2
KGVT 101715Z AUTO 36003KT 10SM CLR 11/M01 A3040 RMK AO2
KGVT 101655Z AUTO 00000KT 10SM CLR 10/M02 A3040 RMK AO2
KGVT 101635Z AUTO 00000KT 10SM CLR 09/M01 A3041 RMK AO2
KGVT 101615Z AUTO 00000KT 10SM CLR 08/00 A3041 RMK AO2
KGVT 101555Z AUTO 01003KT 10SM CLR 07/00 A3041 RMK AO2
KGVT 101535Z AUTO 34003KT 10SM CLR 07/00 A3041 RMK AO2
KGVT 101515Z AUTO 34005KT 10SM CLR 06/00 A3040 RMK AO2
KGVT 101455Z AUTO 00000KT 10SM CLR 05/01 A3040 RMK AO2
KGVT 101435Z AUTO 00000KT 10SM CLR 03/00 A3039 RMK AO2
KGVT 101415Z AUTO 34003KT 10SM CLR 02/00 A3039 RMK AO2
KGVT 101355Z AUTO 00000KT 10SM CLR 01/00 A3038 RMK AO2
KGVT 101335Z AUTO 00000KT 10SM CLR 00/M01 A3038 RMK AO2
KGVT 101315Z AUTO 00000KT 10SM CLR 00/00 A3037 RMK AO2
KGVT 101255Z AUTO 00000KT 10SM CLR 00/M01 A3036 RMK AO2
KGVT 101235Z AUTO 00000KT 10SM CLR 00/00 A3036 RMK AO2
KGVT 101215Z AUTO 00000KT 10SM CLR 00/M01 A3035 RMK AO2
KGVT 101155Z AUTO 00000KT 10SM CLR 01/00 A3035 RMK AO2
KGVT 101135Z AUTO 00000KT 10SM CLR 01/00 A3035 RMK AO2
KGVT 101115Z AUTO 30003KT 10SM CLR 01/00 A3035 RMK AO2
KGVT 101055Z AUTO 29003KT 10SM CLR 01/00 A3034 RMK AO2
KGVT 101035Z AUTO 28003KT 10SM CLR 01/M01 A3034 RMK AO2
KGVT 101015Z AUTO 30003KT 10SM CLR 02/M01 A3033 RMK AO2
KGVT 100955Z AUTO 29003KT 10SM CLR 02/00 A3034 RMK AO2
KGVT 100935Z AUTO 00000KT 10SM CLR 02/00 A3035 RMK AO2
KGVT 100915Z AUTO 00000KT 10SM CLR 02/00 A3035 RMK AO2
KGVT 100855Z AUTO 29004KT 10SM CLR 02/00 A3035 RMK AO2
KGVT 100835Z AUTO 00000KT 10SM CLR 02/M01 A3033 RMK AO2
KGVT 100815Z AUTO 32003KT 10SM CLR 02/M01 A3035 RMK AO2
KGVT 100755Z AUTO 00000KT 10SM CLR 03/00 A3034 RMK AO2
KGVT 100735Z AUTO 31003KT 10SM CLR 02/M01 A3034 RMK AO2
KGVT 100715Z AUTO 33003KT 10SM CLR 03/00 A3034 RMK AO2
KGVT 100655Z AUTO 33003KT 10SM CLR 03/M01 A3034 RMK AO2
KGVT 100635Z AUTO 33003KT 10SM CLR 03/00 A3035 RMK AO2
KGVT 100615Z AUTO 31004KT 10SM CLR 03/00 A3036 RMK AO2
KGVT 100555Z AUTO 31003KT 10SM CLR 03/M01 A3036 RMK AO2
KGVT 100535Z AUTO 31004KT 10SM CLR 03/00 A3036 RMK AO2
KGVT 100515Z AUTO 32004KT 10SM CLR 04/00 A3036 RMK AO2
KGVT 100455Z AUTO 31005KT 10SM CLR 04/00 A3036 RMK AO2
KGVT 100430Z AUTO 32004KT 10SM CLR 04/00 A3036 RMK AO2
KGVT 100415Z AUTO 33003KT 10SM CLR 05/00 A3036 RMK AO2
KGVT 100355Z AUTO 33004KT 10SM CLR 04/00 A3036 RMK AO2
KGVT 100335Z AUTO 32004KT 10SM CLR 05/00 A3035 RMK AO2
KGVT 100315Z AUTO 32003KT 10SM CLR 05/00 A3035 RMK AO2
KGVT 100255Z AUTO 31003KT 10SM CLR 05/00 A3035 RMK AO2
KGVT 100235Z AUTO 00000KT 10SM CLR 05/00 A3034 RMK AO2
KGVT 100215Z AUTO 33004KT 10SM CLR 06/00 A3034 RMK AO2
KGVT 100155Z AUTO 33004KT 10SM CLR 06/01 A3034 RMK AO2
KGVT 100135Z AUTO 32005KT 10SM CLR 05/01 A3033 RMK AO2
KGVT 100115Z AUTO 00000KT 10SM CLR 05/02 A3033 RMK AO2